sensor_id;sensor_type;location;lat;lon;timestamp;P1;durP1;ratioP1;P2;durP2;ratioP2
20910;SDS011;10615;42.702;23.314;2022-12-07T00:00:47;34.78;;;21.27;;
20910;SDS011;10615;42.702;23.314;2022-12-07T00:01:47;32.60;;;21.73;;
20910;SDS011;10615;42.702;23.314;2022-12-07T00:02:48;34.08;;;21.35;;
20910;SDS011;10615;42.702;23.314;2022-12-07T00:03:50;35.95;;;22.50;;
20910;SDS011;10615;42.702;23.314;2022-12-07T00:04:52;34.22;;;21.50;;
20910;SDS011;10615;42.702;23.314;2022-12-07T00:05:53;34.50;;;22.33;;
20910;SDS011;10615;42.702;23.314;2022-12-07T00:06:58;36.45;;;21.95;;
20910;SDS011;10615;42.702;23.314;2022-12-07T00:07:58;37.05;;;22.42;;
20910;SDS011;10615;42.702;23.314;2022-12-07T00:08:59;37.90;;;23.08;;
20910;SDS011;10615;42.702;23.314;2022-12-07T00:09:59;33.25;;;22.08;;
20910;SDS011;10615;42.702;23.314;2022-12-07T00:11:10;34.22;;;21.92;;
20910;SDS011;10615;42.702;23.314;2022-12-07T00:12:13;37.75;;;22.38;;
20910;SDS011;10615;42.702;23.314;2022-12-07T00:13:13;34.22;;;22.33;;
20910;SDS011;10615;42.702;23.314;2022-12-07T00:14:14;35.28;;;22.27;;
20910;SDS011;10615;42.702;23.314;2022-12-07T00:15:16;34.67;;;21.77;;
20910;SDS011;10615;42.702;23.314;2022-12-07T00:16:18;32.92;;;22.05;;
20910;SDS011;10615;42.702;23.314;2022-12-07T00:17:19;34.38;;;22.23;;
20910;SDS011;10615;42.702;23.314;2022-12-07T00:18:20;33.50;;;22.27;;
20910;SDS011;10615;42.702;23.314;2022-12-07T00:19:21;33.83;;;21.98;;
20910;SDS011;10615;42.702;23.314;2022-12-07T00:20:21;35.13;;;21.63;;
20910;SDS011;10615;42.702;23.314;2022-12-07T00:21:26;38.40;;;21.70;;
20910;SDS011;10615;42.702;23.314;2022-12-07T00:22:27;34.28;;;21.33;;
20910;SDS011;10615;42.702;23.314;2022-12-07T00:23:28;33.55;;;21.95;;
20910;SDS011;10615;42.702;23.314;2022-12-07T00:24:29;30.80;;;21.45;;
20910;SDS011;10615;42.702;23.314;2022-12-07T00:25:29;36.22;;;22.08;;
20910;SDS011;10615;42.702;23.314;2022-12-07T00:26:34;44.83;;;27.20;;
20910;SDS011;10615;42.702;23.314;2022-12-07T00:27:36;41.47;;;25.83;;
20910;SDS011;10615;42.702;23.314;2022-12-07T00:28:37;36.63;;;23.67;;
20910;SDS011;10615;42.702;23.314;2022-12-07T00:29:37;38.25;;;24.70;;
20910;SDS011;10615;42.702;23.314;2022-12-07T00:30:38;40.83;;;23.90;;
20910;SDS011;10615;42.702;23.314;2022-12-07T00:31:39;36.67;;;24.15;;
20910;SDS011;10615;42.702;23.314;2022-12-07T00:32:39;38.33;;;22.65;;
20910;SDS011;10615;42.702;23.314;2022-12-07T00:33:40;38.65;;;23.77;;
20910;SDS011;10615;42.702;23.314;2022-12-07T00:34:41;35.78;;;23.30;;
20910;SDS011;10615;42.702;23.314;2022-12-07T00:35:42;34.22;;;22.50;;
20910;SDS011;10615;42.702;23.314;2022-12-07T00:36:42;37.20;;;23.80;;
20910;SDS011;10615;42.702;23.314;2022-12-07T00:37:43;36.35;;;23.35;;
20910;SDS011;10615;42.702;23.314;2022-12-07T00:38:44;38.17;;;23.63;;
20910;SDS011;10615;42.702;23.314;2022-12-07T00:39:45;34.90;;;23.35;;
20910;SDS011;10615;42.702;23.314;2022-12-07T00:40:53;39.42;;;23.98;;
20910;SDS011;10615;42.702;23.314;2022-12-07T00:41:55;36.33;;;22.98;;
20910;SDS011;10615;42.702;23.314;2022-12-07T00:42:56;40.58;;;24.77;;
20910;SDS011;10615;42.702;23.314;2022-12-07T00:43:56;37.65;;;23.52;;
20910;SDS011;10615;42.702;23.314;2022-12-07T00:44:57;35.78;;;22.38;;
20910;SDS011;10615;42.702;23.314;2022-12-07T00:45:58;34.35;;;22.02;;
20910;SDS011;10615;42.702;23.314;2022-12-07T00:46:58;34.13;;;22.48;;
20910;SDS011;10615;42.702;23.314;2022-12-07T00:47:59;34.58;;;21.90;;
20910;SDS011;10615;42.702;23.314;2022-12-07T00:49:00;35.53;;;21.55;;
20910;SDS011;10615;42.702;23.314;2022-12-07T00:50:00;34.70;;;21.52;;
20910;SDS011;10615;42.702;23.314;2022-12-07T00:51:01;33.33;;;21.45;;
20910;SDS011;10615;42.702;23.314;2022-12-07T00:52:03;34.22;;;21.90;;
20910;SDS011;10615;42.702;23.314;2022-12-07T00:53:03;34.90;;;22.73;;
20910;SDS011;10615;42.702;23.314;2022-12-07T00:54:04;34.33;;;21.83;;
20910;SDS011;10615;42.702;23.314;2022-12-07T00:55:05;38.95;;;21.42;;
20910;SDS011;10615;42.702;23.314;2022-12-07T00:56:09;33.58;;;21.65;;
20910;SDS011;10615;42.702;23.314;2022-12-07T00:57:12;36.58;;;21.73;;
20910;SDS011;10615;42.702;23.314;2022-12-07T00:58:13;36.47;;;21.02;;
20910;SDS011;10615;42.702;23.314;2022-12-07T00:59:14;34.75;;;21.65;;
20910;SDS011;10615;42.702;23.314;2022-12-07T01:00:15;35.97;;;21.98;;
20910;SDS011;10615;42.702;23.314;2022-12-07T01:01:15;35.08;;;22.17;;
20910;SDS011;10615;42.702;23.314;2022-12-07T01:02:16;31.08;;;22.58;;
20910;SDS011;10615;42.702;23.314;2022-12-07T01:03:17;36.78;;;22.25;;
20910;SDS011;10615;42.702;23.314;2022-12-07T01:04:18;37.05;;;22.45;;
20910;SDS011;10615;42.702;23.314;2022-12-07T01:05:18;33.42;;;21.48;;
20910;SDS011;10615;42.702;23.314;2022-12-07T01:06:20;34.78;;;21.30;;
20910;SDS011;10615;42.702;23.314;2022-12-07T01:07:21;33.90;;;21.23;;
20910;SDS011;10615;42.702;23.314;2022-12-07T01:08:23;33.15;;;21.13;;
20910;SDS011;10615;42.702;23.314;2022-12-07T01:09:24;34.00;;;22.05;;
20910;SDS011;10615;42.702;23.314;2022-12-07T01:10:25;33.83;;;21.20;;
20910;SDS011;10615;42.702;23.314;2022-12-07T01:11:27;34.25;;;21.38;;
20910;SDS011;10615;42.702;23.314;2022-12-07T01:12:29;33.95;;;21.48;;
20910;SDS011;10615;42.702;23.314;2022-12-07T01:13:30;34.92;;;21.90;;
20910;SDS011;10615;42.702;23.314;2022-12-07T01:14:31;35.97;;;21.95;;
20910;SDS011;10615;42.702;23.314;2022-12-07T01:15:32;33.55;;;21.77;;
20910;SDS011;10615;42.702;23.314;2022-12-07T01:16:32;37.17;;;22.40;;
20910;SDS011;10615;42.702;23.314;2022-12-07T01:17:33;34.97;;;21.40;;
20910;SDS011;10615;42.702;23.314;2022-12-07T01:18:35;33.47;;;21.20;;
20910;SDS011;10615;42.702;23.314;2022-12-07T01:19:36;36.53;;;20.90;;
20910;SDS011;10615;42.702;23.314;2022-12-07T01:20:36;34.22;;;20.90;;
20910;SDS011;10615;42.702;23.314;2022-12-07T01:21:37;34.67;;;21.05;;
20910;SDS011;10615;42.702;23.314;2022-12-07T01:22:39;33.63;;;21.80;;
20910;SDS011;10615;42.702;23.314;2022-12-07T01:23:40;31.25;;;21.05;;
20910;SDS011;10615;42.702;23.314;2022-12-07T01:24:41;31.38;;;20.58;;
20910;SDS011;10615;42.702;23.314;2022-12-07T01:25:41;33.25;;;21.52;;
20910;SDS011;10615;42.702;23.314;2022-12-07T01:26:42;34.80;;;20.95;;
20910;SDS011;10615;42.702;23.314;2022-12-07T01:27:43;30.42;;;20.58;;
20910;SDS011;10615;42.702;23.314;2022-12-07T01:28:43;34.17;;;22.05;;
20910;SDS011;10615;42.702;23.314;2022-12-07T01:29:45;36.58;;;21.88;;
20910;SDS011;10615;42.702;23.314;2022-12-07T01:30:54;32.50;;;21.58;;
20910;SDS011;10615;42.702;23.314;2022-12-07T01:31:56;36.08;;;21.50;;
20910;SDS011;10615;42.702;23.314;2022-12-07T01:32:56;36.55;;;22.90;;
20910;SDS011;10615;42.702;23.314;2022-12-07T01:33:57;36.00;;;22.25;;
20910;SDS011;10615;42.702;23.314;2022-12-07T01:34:59;35.08;;;22.05;;
20910;SDS011;10615;42.702;23.314;2022-12-07T01:36:01;36.28;;;21.70;;
20910;SDS011;10615;42.702;23.314;2022-12-07T01:37:05;36.78;;;21.92;;
20910;SDS011;10615;42.702;23.314;2022-12-07T01:38:06;34.00;;;22.27;;
20910;SDS011;10615;42.702;23.314;2022-12-07T01:39:07;31.70;;;22.05;;
20910;SDS011;10615;42.702;23.314;2022-12-07T01:40:09;32.20;;;22.17;;
20910;SDS011;10615;42.702;23.314;2022-12-07T01:41:11;31.15;;;20.73;;
20910;SDS011;10615;42.702;23.314;2022-12-07T01:42:12;33.70;;;21.58;;
20910;SDS011;10615;42.702;23.314;2022-12-07T01:43:16;37.42;;;21.63;;
20910;SDS011;10615;42.702;23.314;2022-12-07T01:44:22;34.28;;;21.30;;
20910;SDS011;10615;42.702;23.314;2022-12-07T01:46:56;38.35;;;21.42;;
20910;SDS011;10615;42.702;23.314;2022-12-07T01:47:59;34.30;;;20.88;;
20910;SDS011;10615;42.702;23.314;2022-12-07T01:49:00;34.33;;;21.50;;
20910;SDS011;10615;42.702;23.314;2022-12-07T01:50:01;32.67;;;20.67;;
20910;SDS011;10615;42.702;23.314;2022-12-07T01:51:04;41.58;;;20.98;;
20910;SDS011;10615;42.702;23.314;2022-12-07T01:53:28;30.83;;;20.48;;
20910;SDS011;10615;42.702;23.314;2022-12-07T01:54:30;33.40;;;21.90;;
20910;SDS011;10615;42.702;23.314;2022-12-07T01:55:32;32.22;;;20.85;;
20910;SDS011;10615;42.702;23.314;2022-12-07T01:56:36;32.45;;;20.95;;
20910;SDS011;10615;42.702;23.314;2022-12-07T01:57:42;34.47;;;20.60;;
20910;SDS011;10615;42.702;23.314;2022-12-07T01:58:45;31.80;;;19.88;;
20910;SDS011;10615;42.702;23.314;2022-12-07T01:59:49;35.22;;;20.63;;
20910;SDS011;10615;42.702;23.314;2022-12-07T02:00:51;34.53;;;20.23;;
20910;SDS011;10615;42.702;23.314;2022-12-07T02:01:52;33.05;;;19.83;;
20910;SDS011;10615;42.702;23.314;2022-12-07T02:03:05;34.22;;;20.20;;
20910;SDS011;10615;42.702;23.314;2022-12-07T02:04:11;36.63;;;20.35;;
20910;SDS011;10615;42.702;23.314;2022-12-07T02:05:12;33.42;;;20.30;;
20910;SDS011;10615;42.702;23.314;2022-12-07T02:06:15;33.08;;;21.30;;
20910;SDS011;10615;42.702;23.314;2022-12-07T02:07:20;33.70;;;20.00;;
20910;SDS011;10615;42.702;23.314;2022-12-07T02:08:23;36.83;;;21.20;;
20910;SDS011;10615;42.702;23.314;2022-12-07T02:09:24;32.10;;;20.25;;
20910;SDS011;10615;42.702;23.314;2022-12-07T02:10:26;30.92;;;19.73;;
20910;SDS011;10615;42.702;23.314;2022-12-07T02:11:29;28.98;;;19.30;;
20910;SDS011;10615;42.702;23.314;2022-12-07T02:12:30;34.05;;;20.77;;
20910;SDS011;10615;42.702;23.314;2022-12-07T02:13:31;32.22;;;21.15;;
20910;SDS011;10615;42.702;23.314;2022-12-07T02:14:35;32.22;;;20.30;;
20910;SDS011;10615;42.702;23.314;2022-12-07T02:18:09;31.00;;;20.20;;
20910;SDS011;10615;42.702;23.314;2022-12-07T02:21:02;30.25;;;19.92;;
20910;SDS011;10615;42.702;23.314;2022-12-07T02:28:04;31.77;;;20.60;;
20910;SDS011;10615;42.702;23.314;2022-12-07T02:29:20;30.42;;;19.92;;
20910;SDS011;10615;42.702;23.314;2022-12-07T02:30:22;36.08;;;21.05;;
20910;SDS011;10615;42.702;23.314;2022-12-07T02:31:28;32.25;;;20.23;;
20910;SDS011;10615;42.702;23.314;2022-12-07T02:34:14;34.10;;;20.92;;
20910;SDS011;10615;42.702;23.314;2022-12-07T02:35:32;33.30;;;21.13;;
20910;SDS011;10615;42.702;23.314;2022-12-07T02:36:46;33.78;;;19.13;;
20910;SDS011;10615;42.702;23.314;2022-12-07T02:37:58;30.23;;;19.42;;
20910;SDS011;10615;42.702;23.314;2022-12-07T02:39:16;31.20;;;19.55;;
20910;SDS011;10615;42.702;23.314;2022-12-07T02:40:31;29.33;;;18.83;;
20910;SDS011;10615;42.702;23.314;2022-12-07T02:41:40;30.70;;;19.30;;
20910;SDS011;10615;42.702;23.314;2022-12-07T02:42:47;36.10;;;19.60;;
20910;SDS011;10615;42.702;23.314;2022-12-07T02:43:52;33.20;;;20.63;;
20910;SDS011;10615;42.702;23.314;2022-12-07T02:44:56;32.03;;;19.38;;
20910;SDS011;10615;42.702;23.314;2022-12-07T02:46:04;30.73;;;19.58;;
20910;SDS011;10615;42.702;23.314;2022-12-07T02:47:10;34.15;;;22.05;;
20910;SDS011;10615;42.702;23.314;2022-12-07T02:48:15;47.17;;;33.65;;
20910;SDS011;10615;42.702;23.314;2022-12-07T02:49:17;66.38;;;47.83;;
20910;SDS011;10615;42.702;23.314;2022-12-07T02:50:19;58.95;;;43.05;;
20910;SDS011;10615;42.702;23.314;2022-12-07T02:51:21;51.83;;;34.25;;
20910;SDS011;10615;42.702;23.314;2022-12-07T02:52:22;55.22;;;36.50;;
20910;SDS011;10615;42.702;23.314;2022-12-07T02:54:35;48.97;;;34.67;;
20910;SDS011;10615;42.702;23.314;2022-12-07T02:55:37;51.25;;;37.22;;
20910;SDS011;10615;42.702;23.314;2022-12-07T03:00:04;50.38;;;33.40;;
20910;SDS011;10615;42.702;23.314;2022-12-07T03:01:04;46.20;;;29.92;;
20910;SDS011;10615;42.702;23.314;2022-12-07T03:03:32;43.58;;;30.10;;
20910;SDS011;10615;42.702;23.314;2022-12-07T03:05:49;44.95;;;29.52;;
20910;SDS011;10615;42.702;23.314;2022-12-07T03:07:05;43.78;;;29.92;;
20910;SDS011;10615;42.702;23.314;2022-12-07T03:09:02;43.25;;;27.85;;
20910;SDS011;10615;42.702;23.314;2022-12-07T03:10:17;38.30;;;25.40;;
20910;SDS011;10615;42.702;23.314;2022-12-07T03:11:36;36.10;;;22.50;;
20910;SDS011;10615;42.702;23.314;2022-12-07T03:13:59;37.75;;;22.55;;
20910;SDS011;10615;42.702;23.314;2022-12-07T03:15:18;42.28;;;23.15;;
20910;SDS011;10615;42.702;23.314;2022-12-07T03:16:33;31.55;;;20.40;;
20910;SDS011;10615;42.702;23.314;2022-12-07T03:17:40;32.15;;;21.13;;
20910;SDS011;10615;42.702;23.314;2022-12-07T03:18:48;33.67;;;21.25;;
20910;SDS011;10615;42.702;23.314;2022-12-07T03:19:56;32.85;;;21.50;;
20910;SDS011;10615;42.702;23.314;2022-12-07T03:21:02;31.73;;;21.33;;
20910;SDS011;10615;42.702;23.314;2022-12-07T03:22:10;32.15;;;20.55;;
20910;SDS011;10615;42.702;23.314;2022-12-07T03:23:12;29.52;;;20.02;;
20910;SDS011;10615;42.702;23.314;2022-12-07T03:24:39;29.45;;;19.63;;
20910;SDS011;10615;42.702;23.314;2022-12-07T03:25:50;31.35;;;20.00;;
20910;SDS011;10615;42.702;23.314;2022-12-07T03:26:59;30.80;;;19.63;;
20910;SDS011;10615;42.702;23.314;2022-12-07T03:28:05;33.30;;;19.80;;
20910;SDS011;10615;42.702;23.314;2022-12-07T03:29:08;34.60;;;20.70;;
20910;SDS011;10615;42.702;23.314;2022-12-07T03:30:21;33.13;;;20.30;;
20910;SDS011;10615;42.702;23.314;2022-12-07T03:31:25;31.55;;;20.60;;
20910;SDS011;10615;42.702;23.314;2022-12-07T03:32:48;28.98;;;19.60;;
20910;SDS011;10615;42.702;23.314;2022-12-07T03:36:37;33.55;;;21.85;;
20910;SDS011;10615;42.702;23.314;2022-12-07T03:37:49;34.38;;;21.17;;
20910;SDS011;10615;42.702;23.314;2022-12-07T03:39:38;31.02;;;20.75;;
20910;SDS011;10615;42.702;23.314;2022-12-07T03:40:26;34.92;;;21.83;;
20910;SDS011;10615;42.702;23.314;2022-12-07T03:41:33;37.25;;;20.83;;
20910;SDS011;10615;42.702;23.314;2022-12-07T03:42:37;34.10;;;20.80;;
20910;SDS011;10615;42.702;23.314;2022-12-07T03:43:37;36.05;;;21.95;;
20910;SDS011;10615;42.702;23.314;2022-12-07T03:44:40;31.77;;;21.50;;
20910;SDS011;10615;42.702;23.314;2022-12-07T03:45:42;31.58;;;21.17;;
20910;SDS011;10615;42.702;23.314;2022-12-07T03:47:03;33.35;;;21.67;;
20910;SDS011;10615;42.702;23.314;2022-12-07T03:48:13;37.47;;;22.13;;
20910;SDS011;10615;42.702;23.314;2022-12-07T03:49:40;35.28;;;21.63;;
20910;SDS011;10615;42.702;23.314;2022-12-07T03:52:00;34.97;;;21.75;;
20910;SDS011;10615;42.702;23.314;2022-12-07T03:54:21;36.50;;;21.90;;
20910;SDS011;10615;42.702;23.314;2022-12-07T03:55:14;38.50;;;22.92;;
20910;SDS011;10615;42.702;23.314;2022-12-07T03:56:19;37.33;;;22.48;;
20910;SDS011;10615;42.702;23.314;2022-12-07T03:57:21;38.10;;;22.33;;
20910;SDS011;10615;42.702;23.314;2022-12-07T03:58:24;37.00;;;23.10;;
20910;SDS011;10615;42.702;23.314;2022-12-07T03:59:25;39.25;;;22.65;;
20910;SDS011;10615;42.702;23.314;2022-12-07T04:00:27;35.13;;;22.73;;
20910;SDS011;10615;42.702;23.314;2022-12-07T04:01:28;34.97;;;22.27;;
20910;SDS011;10615;42.702;23.314;2022-12-07T04:02:29;33.92;;;22.23;;
20910;SDS011;10615;42.702;23.314;2022-12-07T04:03:30;35.88;;;22.50;;
20910;SDS011;10615;42.702;23.314;2022-12-07T04:04:30;36.92;;;23.33;;
20910;SDS011;10615;42.702;23.314;2022-12-07T04:05:32;40.28;;;22.65;;
20910;SDS011;10615;42.702;23.314;2022-12-07T04:06:32;38.10;;;22.92;;
20910;SDS011;10615;42.702;23.314;2022-12-07T04:07:33;39.65;;;22.00;;
20910;SDS011;10615;42.702;23.314;2022-12-07T04:08:34;40.15;;;22.98;;
20910;SDS011;10615;42.702;23.314;2022-12-07T04:09:34;35.75;;;22.38;;
20910;SDS011;10615;42.702;23.314;2022-12-07T04:10:35;34.88;;;21.65;;
20910;SDS011;10615;42.702;23.314;2022-12-07T04:11:36;34.80;;;22.52;;
20910;SDS011;10615;42.702;23.314;2022-12-07T04:12:37;38.40;;;23.58;;
20910;SDS011;10615;42.702;23.314;2022-12-07T04:13:37;39.95;;;24.02;;
20910;SDS011;10615;42.702;23.314;2022-12-07T04:14:56;36.50;;;23.55;;
20910;SDS011;10615;42.702;23.314;2022-12-07T04:15:57;38.95;;;24.20;;
20910;SDS011;10615;42.702;23.314;2022-12-07T04:16:58;36.10;;;21.92;;
20910;SDS011;10615;42.702;23.314;2022-12-07T04:17:59;38.80;;;23.33;;
20910;SDS011;10615;42.702;23.314;2022-12-07T04:19:00;33.90;;;22.60;;
20910;SDS011;10615;42.702;23.314;2022-12-07T04:20:00;35.58;;;22.50;;
20910;SDS011;10615;42.702;23.314;2022-12-07T04:21:01;33.95;;;22.55;;
20910;SDS011;10615;42.702;23.314;2022-12-07T04:22:02;39.95;;;23.90;;
20910;SDS011;10615;42.702;23.314;2022-12-07T04:23:03;38.28;;;24.23;;
20910;SDS011;10615;42.702;23.314;2022-12-07T04:24:04;37.83;;;23.83;;
20910;SDS011;10615;42.702;23.314;2022-12-07T04:25:05;36.47;;;22.90;;
20910;SDS011;10615;42.702;23.314;2022-12-07T04:26:06;37.17;;;22.88;;
20910;SDS011;10615;42.702;23.314;2022-12-07T04:27:07;42.58;;;23.98;;
20910;SDS011;10615;42.702;23.314;2022-12-07T04:28:07;40.75;;;24.25;;
20910;SDS011;10615;42.702;23.314;2022-12-07T04:29:08;41.67;;;23.50;;
20910;SDS011;10615;42.702;23.314;2022-12-07T04:30:09;36.40;;;23.00;;
20910;SDS011;10615;42.702;23.314;2022-12-07T04:31:10;37.35;;;23.77;;
20910;SDS011;10615;42.702;23.314;2022-12-07T04:32:11;37.40;;;23.15;;
20910;SDS011;10615;42.702;23.314;2022-12-07T04:33:11;40.70;;;23.70;;
20910;SDS011;10615;42.702;23.314;2022-12-07T04:34:12;37.78;;;23.92;;
20910;SDS011;10615;42.702;23.314;2022-12-07T04:35:14;38.40;;;23.92;;
20910;SDS011;10615;42.702;23.314;2022-12-07T04:36:15;36.90;;;23.50;;
20910;SDS011;10615;42.702;23.314;2022-12-07T04:37:15;37.28;;;22.15;;
20910;SDS011;10615;42.702;23.314;2022-12-07T04:38:17;37.45;;;21.73;;
20910;SDS011;10615;42.702;23.314;2022-12-07T04:39:19;31.67;;;21.58;;
20910;SDS011;10615;42.702;23.314;2022-12-07T04:40:23;33.30;;;21.25;;
20910;SDS011;10615;42.702;23.314;2022-12-07T04:41:24;37.17;;;22.15;;
20910;SDS011;10615;42.702;23.314;2022-12-07T04:42:28;39.05;;;22.58;;
20910;SDS011;10615;42.702;23.314;2022-12-07T04:43:29;40.88;;;21.77;;
20910;SDS011;10615;42.702;23.314;2022-12-07T04:44:30;36.88;;;21.90;;
20910;SDS011;10615;42.702;23.314;2022-12-07T04:45:30;34.85;;;22.17;;
20910;SDS011;10615;42.702;23.314;2022-12-07T04:46:31;37.03;;;21.38;;
20910;SDS011;10615;42.702;23.314;2022-12-07T04:47:32;36.83;;;22.17;;
20910;SDS011;10615;42.702;23.314;2022-12-07T04:48:32;36.25;;;21.33;;
20910;SDS011;10615;42.702;23.314;2022-12-07T04:49:33;38.83;;;22.67;;
20910;SDS011;10615;42.702;23.314;2022-12-07T04:50:34;35.63;;;21.80;;
20910;SDS011;10615;42.702;23.314;2022-12-07T04:51:38;40.70;;;24.80;;
20910;SDS011;10615;42.702;23.314;2022-12-07T04:52:38;36.75;;;21.80;;
20910;SDS011;10615;42.702;23.314;2022-12-07T04:53:39;39.28;;;23.58;;
20910;SDS011;10615;42.702;23.314;2022-12-07T04:54:40;37.45;;;21.73;;
20910;SDS011;10615;42.702;23.314;2022-12-07T04:55:41;31.67;;;21.27;;
20910;SDS011;10615;42.702;23.314;2022-12-07T04:56:41;38.67;;;21.60;;
20910;SDS011;10615;42.702;23.314;2022-12-07T04:57:43;31.13;;;20.67;;
20910;SDS011;10615;42.702;23.314;2022-12-07T04:58:44;32.63;;;20.75;;
20910;SDS011;10615;42.702;23.314;2022-12-07T04:59:46;35.30;;;20.50;;
20910;SDS011;10615;42.702;23.314;2022-12-07T05:00:47;34.00;;;20.65;;
20910;SDS011;10615;42.702;23.314;2022-12-07T05:01:47;35.25;;;20.83;;
20910;SDS011;10615;42.702;23.314;2022-12-07T05:02:48;35.38;;;21.50;;
20910;SDS011;10615;42.702;23.314;2022-12-07T05:03:49;30.70;;;19.88;;
20910;SDS011;10615;42.702;23.314;2022-12-07T05:04:50;32.28;;;20.70;;
20910;SDS011;10615;42.702;23.314;2022-12-07T05:05:51;35.05;;;21.25;;
20910;SDS011;10615;42.702;23.314;2022-12-07T05:06:51;34.67;;;21.23;;
20910;SDS011;10615;42.702;23.314;2022-12-07T05:07:52;33.83;;;20.38;;
20910;SDS011;10615;42.702;23.314;2022-12-07T05:08:53;38.67;;;21.05;;
20910;SDS011;10615;42.702;23.314;2022-12-07T05:09:54;33.40;;;20.92;;
20910;SDS011;10615;42.702;23.314;2022-12-07T05:10:54;34.88;;;21.33;;
20910;SDS011;10615;42.702;23.314;2022-12-07T05:11:55;30.58;;;20.40;;
20910;SDS011;10615;42.702;23.314;2022-12-07T05:12:55;33.53;;;21.52;;
20910;SDS011;10615;42.702;23.314;2022-12-07T05:13:56;36.17;;;21.65;;
20910;SDS011;10615;42.702;23.314;2022-12-07T05:14:57;36.38;;;21.48;;
20910;SDS011;10615;42.702;23.314;2022-12-07T05:15:57;36.13;;;22.05;;
20910;SDS011;10615;42.702;23.314;2022-12-07T05:16:58;33.63;;;22.02;;
20910;SDS011;10615;42.702;23.314;2022-12-07T05:17:59;37.65;;;22.02;;
20910;SDS011;10615;42.702;23.314;2022-12-07T05:19:00;36.50;;;22.40;;
20910;SDS011;10615;42.702;23.314;2022-12-07T05:20:00;39.25;;;24.95;;
20910;SDS011;10615;42.702;23.314;2022-12-07T05:21:01;39.05;;;23.10;;
20910;SDS011;10615;42.702;23.314;2022-12-07T05:22:02;35.88;;;22.08;;
20910;SDS011;10615;42.702;23.314;2022-12-07T05:23:02;32.80;;;22.25;;
20910;SDS011;10615;42.702;23.314;2022-12-07T05:24:03;38.67;;;23.17;;
20910;SDS011;10615;42.702;23.314;2022-12-07T05:25:05;34.47;;;22.50;;
20910;SDS011;10615;42.702;23.314;2022-12-07T05:26:06;36.58;;;22.27;;
20910;SDS011;10615;42.702;23.314;2022-12-07T05:27:07;37.70;;;22.88;;
20910;SDS011;10615;42.702;23.314;2022-12-07T05:28:07;36.50;;;22.33;;
20910;SDS011;10615;42.702;23.314;2022-12-07T05:29:10;40.47;;;22.02;;
20910;SDS011;10615;42.702;23.314;2022-12-07T05:30:15;38.42;;;22.05;;
20910;SDS011;10615;42.702;23.314;2022-12-07T05:31:16;36.13;;;22.55;;
20910;SDS011;10615;42.702;23.314;2022-12-07T05:32:16;38.55;;;23.15;;
20910;SDS011;10615;42.702;23.314;2022-12-07T05:33:18;44.88;;;22.25;;
20910;SDS011;10615;42.702;23.314;2022-12-07T05:34:18;32.88;;;21.35;;
20910;SDS011;10615;42.702;23.314;2022-12-07T05:35:19;34.08;;;21.60;;
20910;SDS011;10615;42.702;23.314;2022-12-07T05:36:20;33.63;;;21.35;;
20910;SDS011;10615;42.702;23.314;2022-12-07T05:37:21;37.97;;;20.92;;
20910;SDS011;10615;42.702;23.314;2022-12-07T05:38:21;40.20;;;20.88;;
20910;SDS011;10615;42.702;23.314;2022-12-07T05:39:22;37.17;;;21.52;;
20910;SDS011;10615;42.702;23.314;2022-12-07T05:40:23;34.38;;;21.40;;
20910;SDS011;10615;42.702;23.314;2022-12-07T05:41:23;36.47;;;21.10;;
20910;SDS011;10615;42.702;23.314;2022-12-07T05:42:42;40.67;;;20.45;;
20910;SDS011;10615;42.702;23.314;2022-12-07T05:43:43;38.47;;;20.67;;
20910;SDS011;10615;42.702;23.314;2022-12-07T05:44:45;35.38;;;21.45;;
20910;SDS011;10615;42.702;23.314;2022-12-07T05:45:46;36.22;;;21.80;;
20910;SDS011;10615;42.702;23.314;2022-12-07T05:46:47;35.67;;;21.33;;
20910;SDS011;10615;42.702;23.314;2022-12-07T05:47:47;34.97;;;22.08;;
20910;SDS011;10615;42.702;23.314;2022-12-07T05:48:48;40.05;;;22.75;;
20910;SDS011;10615;42.702;23.314;2022-12-07T05:49:49;36.88;;;22.58;;
20910;SDS011;10615;42.702;23.314;2022-12-07T05:50:50;38.17;;;24.08;;
20910;SDS011;10615;42.702;23.314;2022-12-07T05:51:51;39.63;;;25.02;;
20910;SDS011;10615;42.702;23.314;2022-12-07T05:52:52;38.22;;;23.88;;
20910;SDS011;10615;42.702;23.314;2022-12-07T05:53:53;42.92;;;25.10;;
20910;SDS011;10615;42.702;23.314;2022-12-07T05:54:54;39.75;;;24.38;;
20910;SDS011;10615;42.702;23.314;2022-12-07T05:55:54;38.83;;;23.92;;
20910;SDS011;10615;42.702;23.314;2022-12-07T05:56:55;40.97;;;24.00;;
20910;SDS011;10615;42.702;23.314;2022-12-07T05:57:56;41.55;;;24.00;;
20910;SDS011;10615;42.702;23.314;2022-12-07T05:59:15;37.83;;;22.88;;
20910;SDS011;10615;42.702;23.314;2022-12-07T06:00:22;36.85;;;21.60;;
20910;SDS011;10615;42.702;23.314;2022-12-07T06:01:23;35.33;;;22.35;;
20910;SDS011;10615;42.702;23.314;2022-12-07T06:02:23;32.50;;;20.33;;
20910;SDS011;10615;42.702;23.314;2022-12-07T06:03:24;36.78;;;21.35;;
20910;SDS011;10615;42.702;23.314;2022-12-07T06:04:26;37.38;;;21.77;;
20910;SDS011;10615;42.702;23.314;2022-12-07T06:05:28;39.40;;;23.20;;
20910;SDS011;10615;42.702;23.314;2022-12-07T06:06:29;36.85;;;22.77;;
20910;SDS011;10615;42.702;23.314;2022-12-07T06:07:29;38.80;;;22.23;;
20910;SDS011;10615;42.702;23.314;2022-12-07T06:08:30;34.10;;;21.90;;
20910;SDS011;10615;42.702;23.314;2022-12-07T06:09:31;36.80;;;21.85;;
20910;SDS011;10615;42.702;23.314;2022-12-07T06:10:32;36.13;;;22.20;;
20910;SDS011;10615;42.702;23.314;2022-12-07T06:11:33;39.85;;;23.23;;
20910;SDS011;10615;42.702;23.314;2022-12-07T06:12:52;39.50;;;22.27;;
20910;SDS011;10615;42.702;23.314;2022-12-07T06:13:53;41.58;;;22.48;;
20910;SDS011;10615;42.702;23.314;2022-12-07T06:14:54;35.65;;;23.10;;
20910;SDS011;10615;42.702;23.314;2022-12-07T06:15:54;39.80;;;25.77;;
20910;SDS011;10615;42.702;23.314;2022-12-07T06:16:55;44.63;;;25.45;;
20910;SDS011;10615;42.702;23.314;2022-12-07T06:17:56;44.63;;;25.08;;
20910;SDS011;10615;42.702;23.314;2022-12-07T06:18:56;43.13;;;25.25;;
20910;SDS011;10615;42.702;23.314;2022-12-07T06:19:57;40.00;;;25.00;;
20910;SDS011;10615;42.702;23.314;2022-12-07T06:20:58;38.15;;;23.80;;
20910;SDS011;10615;42.702;23.314;2022-12-07T06:21:58;41.22;;;24.02;;
20910;SDS011;10615;42.702;23.314;2022-12-07T06:22:59;42.58;;;23.95;;
20910;SDS011;10615;42.702;23.314;2022-12-07T06:24:00;37.60;;;23.05;;
20910;SDS011;10615;42.702;23.314;2022-12-07T06:25:01;38.97;;;24.83;;
20910;SDS011;10615;42.702;23.314;2022-12-07T06:26:03;54.22;;;25.35;;
20910;SDS011;10615;42.702;23.314;2022-12-07T06:27:04;44.15;;;25.88;;
20910;SDS011;10615;42.702;23.314;2022-12-07T06:28:05;52.78;;;26.83;;
20910;SDS011;10615;42.702;23.314;2022-12-07T06:29:06;37.83;;;23.25;;
20910;SDS011;10615;42.702;23.314;2022-12-07T06:30:07;40.47;;;23.48;;
20910;SDS011;10615;42.702;23.314;2022-12-07T06:31:09;41.60;;;26.48;;
20910;SDS011;10615;42.702;23.314;2022-12-07T06:32:10;54.60;;;31.05;;